sensor_id;sensor_type;location;lat;lon;timestamp;pressure;altitude;pressure_sealevel;temperature;humidity
67038;BME280;53940;53.204;6.590;2024-01-16T00:01:32;100434.16;;;21.59;46.96
67038;BME280;53940;53.204;6.590;2024-01-16T00:04:33;100431.78;;;21.56;46.71
67038;BME280;53940;53.204;6.590;2024-01-16T00:07:33;100435.47;;;21.55;46.60
67038;BME280;53940;53.204;6.590;2024-01-16T00:10:35;100441.97;;;21.52;46.45
67038;BME280;53940;53.204;6.590;2024-01-16T00:13:35;100443.13;;;21.50;46.42
67038;BME280;53940;53.204;6.590;2024-01-16T00:16:46;100442.31;;;21.49;46.31
67038;BME280;53940;53.204;6.590;2024-01-16T00:19:47;100446.81;;;21.49;46.46
67038;BME280;53940;53.204;6.590;2024-01-16T00:22:48;100450.50;;;21.48;46.18
67038;BME280;53940;53.204;6.590;2024-01-16T00:25:48;100453.16;;;21.48;46.19
67038;BME280;53940;53.204;6.590;2024-01-16T00:28:48;100447.81;;;21.48;46.20
67038;BME280;53940;53.204;6.590;2024-01-16T00:31:49;100438.09;;;21.47;45.96
67038;BME280;53940;53.204;6.590;2024-01-16T00:34:49;100438.09;;;21.47;45.96
67038;BME280;53940;53.204;6.590;2024-01-16T00:37:49;100435.41;;;21.47;45.77
67038;BME280;53940;53.204;6.590;2024-01-16T00:40:50;100433.72;;;21.46;45.81
67038;BME280;53940;53.204;6.590;2024-01-16T00:43:50;100437.25;;;21.46;45.71
67038;BME280;53940;53.204;6.590;2024-01-16T00:46:50;100436.09;;;21.49;45.61
67038;BME280;53940;53.204;6.590;2024-01-16T00:49:51;100444.97;;;21.49;45.42
67038;BME280;53940;53.204;6.590;2024-01-16T00:52:51;100450.16;;;21.51;45.28
67038;BME280;53940;53.204;6.590;2024-01-16T00:55:51;100463.97;;;21.56;45.46
67038;BME280;53940;53.204;6.590;2024-01-16T00:58:54;100458.59;;;21.56;45.12
67038;BME280;53940;53.204;6.590;2024-01-16T01:01:54;100486.13;;;21.58;45.28
67038;BME280;53940;53.204;6.590;2024-01-16T01:04:54;100468.16;;;21.59;45.00
67038;BME280;53940;53.204;6.590;2024-01-16T01:07:55;100483.13;;;21.61;44.90
67038;BME280;53940;53.204;6.590;2024-01-16T01:10:56;100465.88;;;21.64;44.96
67038;BME280;53940;53.204;6.590;2024-01-16T01:13:56;100456.00;;;21.64;44.89
67038;BME280;53940;53.204;6.590;2024-01-16T01:16:57;100464.72;;;21.66;45.00
67038;BME280;53940;53.204;6.590;2024-01-16T01:19:57;100461.91;;;21.68;44.75
67038;BME280;53940;53.204;6.590;2024-01-16T01:22:57;100467.97;;;21.70;44.60
67038;BME280;53940;53.204;6.590;2024-01-16T01:26:00;100470.50;;;21.72;44.79
67038;BME280;53940;53.204;6.590;2024-01-16T01:29:00;100472.03;;;21.74;44.50
67038;BME280;53940;53.204;6.590;2024-01-16T01:32:00;100472.84;;;21.75;44.41
67038;BME280;53940;53.204;6.590;2024-01-16T01:35:01;100477.91;;;21.78;44.26
67038;BME280;53940;53.204;6.590;2024-01-16T01:38:01;100481.28;;;21.80;44.21
67038;BME280;53940;53.204;6.590;2024-01-16T01:41:02;100485.50;;;21.83;44.29
67038;BME280;53940;53.204;6.590;2024-01-16T01:44:02;100488.03;;;21.84;44.00
67038;BME280;53940;53.204;6.590;2024-01-16T01:47:03;100493.06;;;21.87;44.24
67038;BME280;53940;53.204;6.590;2024-01-16T01:50:03;100491.09;;;21.89;44.17
67038;BME280;53940;53.204;6.590;2024-01-16T01:53:04;100489.09;;;21.91;44.03
67038;BME280;53940;53.204;6.590;2024-01-16T01:56:08;100487.06;;;21.93;43.59
67038;BME280;53940;53.204;6.590;2024-01-16T01:59:08;100485.09;;;21.96;43.85
67038;BME280;53940;53.204;6.590;2024-01-16T02:02:10;100477.72;;;21.98;43.61
67038;BME280;53940;53.204;6.590;2024-01-16T02:05:11;100481.94;;;22.00;43.87
67038;BME280;53940;53.204;6.590;2024-01-16T02:08:12;100475.41;;;22.03;43.58
67038;BME280;53940;53.204;6.590;2024-01-16T02:11:12;100484.16;;;22.05;43.58
67038;BME280;53940;53.204;6.590;2024-01-16T02:14:13;100480.44;;;22.06;43.67
67038;BME280;53940;53.204;6.590;2024-01-16T02:17:13;100486.34;;;22.10;43.67
67038;BME280;53940;53.204;6.590;2024-01-16T02:20:13;100490.56;;;22.12;43.40
67038;BME280;53940;53.204;6.590;2024-01-16T02:23:14;100493.94;;;22.14;43.63
67038;BME280;53940;53.204;6.590;2024-01-16T02:26:16;100491.09;;;22.16;43.52
67038;BME280;53940;53.204;6.590;2024-01-16T02:29:17;100478.19;;;22.19;43.33
67038;BME280;53940;53.204;6.590;2024-01-16T02:32:17;100483.25;;;22.23;43.64
67038;BME280;53940;53.204;6.590;2024-01-16T02:35:18;100487.31;;;22.27;43.37
67038;BME280;53940;53.204;6.590;2024-01-16T02:38:18;100487.84;;;22.30;43.61
67038;BME280;53940;53.204;6.590;2024-01-16T02:41:19;100490.19;;;22.33;43.67
67038;BME280;53940;53.204;6.590;2024-01-16T02:44:19;100486.34;;;22.36;43.65
67038;BME280;53940;53.204;6.590;2024-01-16T02:47:20;100486.03;;;22.39;43.57
67038;BME280;53940;53.204;6.590;2024-01-16T02:50:20;100486.56;;;22.43;43.85
67038;BME280;53940;53.204;6.590;2024-01-16T02:53:21;100488.09;;;22.45;43.83
67038;BME280;53940;53.204;6.590;2024-01-16T02:56:21;100488.75;;;22.47;43.84
67038;BME280;53940;53.204;6.590;2024-01-16T02:59:21;100483.06;;;22.51;43.79
67038;BME280;53940;53.204;6.590;2024-01-16T03:02:22;100497.22;;;22.53;43.90
67038;BME280;53940;53.204;6.590;2024-01-16T03:05:23;100493.38;;;22.55;43.73
67038;BME280;53940;53.204;6.590;2024-01-16T03:08:24;100496.88;;;22.56;43.90
67038;BME280;53940;53.204;6.590;2024-01-16T03:11:24;100496.56;;;22.59;43.84
67038;BME280;53940;53.204;6.590;2024-01-16T03:14:25;100487.50;;;22.60;43.79
67038;BME280;53940;53.204;6.590;2024-01-16T03:17:25;100495.41;;;22.61;43.85
67038;BME280;53940;53.204;6.590;2024-01-16T03:20:26;100492.56;;;22.63;43.89
67038;BME280;53940;53.204;6.590;2024-01-16T03:23:26;100486.19;;;22.64;43.88
67038;BME280;53940;53.204;6.590;2024-01-16T03:26:27;100493.25;;;22.65;43.86
67038;BME280;53940;53.204;6.590;2024-01-16T03:29:27;100486.00;;;22.66;43.83
67038;BME280;53940;53.204;6.590;2024-01-16T03:32:28;100482.34;;;22.67;44.06
67038;BME280;53940;53.204;6.590;2024-01-16T03:35:28;100483.16;;;22.67;43.86
67038;BME280;53940;53.204;6.590;2024-01-16T03:38:28;100480.31;;;22.69;44.13
67038;BME280;53940;53.204;6.590;2024-01-16T03:41:29;100478.66;;;22.68;43.84
67038;BME280;53940;53.204;6.590;2024-01-16T03:44:29;100470.44;;;22.69;44.08
67038;BME280;53940;53.204;6.590;2024-01-16T03:47:29;100477.47;;;22.70;43.94
67038;BME280;53940;53.204;6.590;2024-01-16T03:50:30;100475.81;;;22.69;44.10
67038;BME280;53940;53.204;6.590;2024-01-16T03:53:30;100482.84;;;22.70;43.99
67038;BME280;53940;53.204;6.590;2024-01-16T03:56:30;100477.47;;;22.70;43.95
67038;BME280;53940;53.204;6.590;2024-01-16T03:59:31;100482.00;;;22.70;44.05
67038;BME280;53940;53.204;6.590;2024-01-16T04:02:31;100478.31;;;22.71;44.24
67038;BME280;53940;53.204;6.590;2024-01-16T04:05:32;100478.50;;;22.69;44.23
67038;BME280;53940;53.204;6.590;2024-01-16T04:08:34;100469.59;;;22.69;44.08
67038;BME280;53940;53.204;6.590;2024-01-16T04:11:34;100467.75;;;22.69;44.25
67038;BME280;53940;53.204;6.590;2024-01-16T04:14:35;100468.72;;;22.68;43.99
67038;BME280;53940;53.204;6.590;2024-01-16T04:17:36;100461.53;;;22.69;44.16
67038;BME280;53940;53.204;6.590;2024-01-16T04:20:36;100460.84;;;22.67;44.28
67038;BME280;53940;53.204;6.590;2024-01-16T04:23:37;100458.16;;;22.67;44.18
67038;BME280;53940;53.204;6.590;2024-01-16T04:26:37;100462.69;;;22.66;44.19
67038;BME280;53940;53.204;6.590;2024-01-16T04:29:38;100465.38;;;22.66;44.14
67038;BME280;53940;53.204;6.590;2024-01-16T04:32:38;100456.66;;;22.64;44.41
67038;BME280;53940;53.204;6.590;2024-01-16T04:35:39;100462.03;;;22.64;44.30
67038;BME280;53940;53.204;6.590;2024-01-16T04:38:39;100463.03;;;22.63;44.28
67038;BME280;53940;53.204;6.590;2024-01-16T04:41:39;100465.72;;;22.63;44.59
67038;BME280;53940;53.204;6.590;2024-01-16T04:44:40;100465.72;;;22.63;44.30
67038;BME280;53940;53.204;6.590;2024-01-16T04:47:40;100465.72;;;22.63;44.62
67038;BME280;53940;53.204;6.590;2024-01-16T04:50:41;100464.00;;;22.62;44.63
67038;BME280;53940;53.204;6.590;2024-01-16T04:53:41;100468.56;;;22.61;44.66
67038;BME280;53940;53.204;6.590;2024-01-16T04:56:41;100468.69;;;22.60;44.52
67038;BME280;53940;53.204;6.590;2024-01-16T04:59:42;100471.38;;;22.60;44.49
67038;BME280;53940;53.204;6.590;2024-01-16T05:02:42;100473.41;;;22.58;44.74
67038;BME280;53940;53.204;6.590;2024-01-16T05:05:43;100486.84;;;22.58;44.71
67038;BME280;53940;53.204;6.590;2024-01-16T05:08:43;100467.19;;;22.57;44.66
67038;BME280;53940;53.204;6.590;2024-01-16T05:11:43;100468.34;;;22.55;44.76
67038;BME280;53940;53.204;6.590;2024-01-16T05:14:44;100477.41;;;22.54;44.77
67038;BME280;53940;53.204;6.590;2024-01-16T05:17:44;100463.13;;;22.53;44.55
67038;BME280;53940;53.204;6.590;2024-01-16T05:20:44;100471.38;;;22.52;44.58
67038;BME280;53940;53.204;6.590;2024-01-16T05:23:45;100468.69;;;22.52;44.76
67038;BME280;53940;53.204;6.590;2024-01-16T05:26:45;100472.31;;;22.51;44.65
67038;BME280;53940;53.204;6.590;2024-01-16T05:29:45;100469.81;;;22.49;44.86
67038;BME280;53940;53.204;6.590;2024-01-16T05:32:46;100467.28;;;22.47;44.89
67038;BME280;53940;53.204;6.590;2024-01-16T05:35:46;100464.75;;;22.46;44.83
67038;BME280;53940;53.204;6.590;2024-01-16T05:38:46;100471.97;;;22.45;44.74
67038;BME280;53940;53.204;6.590;2024-01-16T05:41:47;100463.91;;;22.45;44.89
67038;BME280;53940;53.204;6.590;2024-01-16T05:44:47;100456.84;;;22.44;44.96
67038;BME280;53940;53.204;6.590;2024-01-16T05:47:47;100444.44;;;22.43;44.89
67038;BME280;53940;53.204;6.590;2024-01-16T05:50:47;100442.75;;;22.42;45.13
67038;BME280;53940;53.204;6.590;2024-01-16T05:53:48;100441.06;;;22.41;44.90
67038;BME280;53940;53.204;6.590;2024-01-16T05:56:48;100441.06;;;22.41;45.10
67038;BME280;53940;53.204;6.590;2024-01-16T05:59:50;100439.41;;;22.40;45.06
67038;BME280;53940;53.204;6.590;2024-01-16T06:02:50;100440.41;;;22.39;45.21
67038;BME280;53940;53.204;6.590;2024-01-16T06:05:50;100437.00;;;22.37;44.87
67038;BME280;53940;53.204;6.590;2024-01-16T06:08:51;100440.69;;;22.36;45.38
67038;BME280;53940;53.204;6.590;2024-01-16T06:11:52;100432.66;;;22.36;45.30
67038;BME280;53940;53.204;6.590;2024-01-16T06:14:52;100431.97;;;22.34;45.22
67038;BME280;53940;53.204;6.590;2024-01-16T06:17:53;100435.66;;;22.33;45.37
67038;BME280;53940;53.204;6.590;2024-01-16T06:20:53;100436.66;;;22.32;45.26
67038;BME280;53940;53.204;6.590;2024-01-16T06:23:53;100441.19;;;22.31;45.51
67038;BME280;53940;53.204;6.590;2024-01-16T06:26:54;100447.72;;;22.29;45.44
67038;BME280;53940;53.204;6.590;2024-01-16T06:29:54;100446.88;;;22.28;45.42
67038;BME280;53940;53.204;6.590;2024-01-16T06:32:54;100451.41;;;22.28;45.50
67038;BME280;53940;53.204;6.590;2024-01-16T06:35:55;100455.09;;;22.27;45.42
67038;BME280;53940;53.204;6.590;2024-01-16T06:38:55;100453.41;;;22.26;45.55
67038;BME280;53940;53.204;6.590;2024-01-16T06:41:56;100455.25;;;22.25;45.49
67038;BME280;53940;53.204;6.590;2024-01-16T06:44:56;100461.63;;;22.24;45.49
67038;BME280;53940;53.204;6.590;2024-01-16T06:47:57;100459.09;;;22.23;46.06
67038;BME280;53940;53.204;6.590;2024-01-16T06:50:57;100454.88;;;22.20;45.65
67038;BME280;53940;53.204;6.590;2024-01-16T06:53:58;100456.03;;;22.17;45.68
67038;BME280;53940;53.204;6.590;2024-01-16T06:56:58;100456.03;;;22.17;45.62
67038;BME280;53940;53.204;6.590;2024-01-16T06:59:58;100455.22;;;22.17;45.54
67038;BME280;53940;53.204;6.590;2024-01-16T07:02:59;100459.72;;;22.16;45.66
67038;BME280;53940;53.204;6.590;2024-01-16T07:05:59;100457.19;;;22.15;45.99
67038;BME280;53940;53.204;6.590;2024-01-16T07:08:59;100458.06;;;22.15;45.68
67038;BME280;53940;53.204;6.590;2024-01-16T07:12:00;100455.53;;;22.14;46.02
67038;BME280;53940;53.204;6.590;2024-01-16T07:15:00;100460.03;;;22.13;46.00
67038;BME280;53940;53.204;6.590;2024-01-16T07:18:01;100463.72;;;22.12;46.05
67038;BME280;53940;53.204;6.590;2024-01-16T07:21:01;100469.28;;;22.11;45.87
67038;BME280;53940;53.204;6.590;2024-01-16T07:24:03;100466.75;;;22.09;45.87
67038;BME280;53940;53.204;6.590;2024-01-16T07:27:04;100469.41;;;22.09;46.03
67038;BME280;53940;53.204;6.590;2024-01-16T07:30:05;100470.56;;;22.06;46.00
67038;BME280;53940;53.204;6.590;2024-01-16T07:33:06;100472.41;;;22.06;46.09
67038;BME280;53940;53.204;6.590;2024-01-16T07:36:08;100470.72;;;22.05;46.17
67038;BME280;53940;53.204;6.590;2024-01-16T07:39:08;100469.91;;;22.04;46.10
67038;BME280;53940;53.204;6.590;2024-01-16T07:42:09;100471.72;;;22.04;46.35
67038;BME280;53940;53.204;6.590;2024-01-16T07:45:09;100480.63;;;22.04;46.04
67038;BME280;53940;53.204;6.590;2024-01-16T07:48:10;100480.78;;;22.03;46.39
67038;BME280;53940;53.204;6.590;2024-01-16T07:51:11;100481.78;;;22.02;46.25
67038;BME280;53940;53.204;6.590;2024-01-16T07:54:11;100493.97;;;21.96;45.57
67038;BME280;53940;53.204;6.590;2024-01-16T07:57:13;100494.41;;;21.83;44.14
67038;BME280;53940;53.204;6.590;2024-01-16T08:00:14;100492.47;;;21.75;44.16
67038;BME280;53940;53.204;6.590;2024-01-16T08:03:14;100496.31;;;21.73;44.33
67038;BME280;53940;53.204;6.590;2024-01-16T08:06:15;100502.50;;;21.73;44.76
67038;BME280;53940;53.204;6.590;2024-01-16T08:09:15;100507.72;;;21.75;44.88
67038;BME280;53940;53.204;6.590;2024-01-16T08:12:16;100505.03;;;21.75;44.92
67038;BME280;53940;53.204;6.590;2024-01-16T08:15:16;100501.34;;;21.76;44.99
67038;BME280;53940;53.204;6.590;2024-01-16T08:18:16;100502.06;;;21.78;44.84
67038;BME280;53940;53.204;6.590;2024-01-16T08:21:17;100510.09;;;21.78;44.88
67038;BME280;53940;53.204;6.590;2024-01-16T08:24:18;100513.47;;;21.80;45.32
67038;BME280;53940;53.204;6.590;2024-01-16T08:27:19;100513.47;;;21.80;45.02
67038;BME280;53940;53.204;6.590;2024-01-16T08:30:19;100514.16;;;21.82;45.07
67038;BME280;53940;53.204;6.590;2024-01-16T08:33:20;100512.47;;;21.81;45.19
67038;BME280;53940;53.204;6.590;2024-01-16T08:36:20;100505.28;;;21.81;45.39
67038;BME280;53940;53.204;6.590;2024-01-16T08:39:20;100516.00;;;21.81;45.54
67038;BME280;53940;53.204;6.590;2024-01-16T08:42:21;100507.97;;;21.81;45.56
67038;BME280;53940;53.204;6.590;2024-01-16T08:45:22;100506.09;;;21.82;45.44
67038;BME280;53940;53.204;6.590;2024-01-16T08:48:22;100505.28;;;21.81;45.61
67038;BME280;53940;53.204;6.590;2024-01-16T08:51:23;100501.59;;;21.83;45.64
67038;BME280;53940;53.204;6.590;2024-01-16T08:54:23;100504.13;;;21.84;45.13
67038;BME280;53940;53.204;6.590;2024-01-16T08:57:23;100495.06;;;21.85;45.58
67038;BME280;53940;53.204;6.590;2024-01-16T09:00:24;100505.81;;;21.85;45.71
67038;BME280;53940;53.204;6.590;2024-01-16T09:03:24;100502.13;;;21.86;45.67
67038;BME280;53940;53.204;6.590;2024-01-16T09:06:25;100508.34;;;21.87;45.74
67038;BME280;53940;53.204;6.590;2024-01-16T09:09:25;100502.78;;;21.88;46.20
67038;BME280;53940;53.204;6.590;2024-01-16T09:12:26;100507.47;;;21.86;46.01
67038;BME280;53940;53.204;6.590;2024-01-16T09:15:26;100513.53;;;21.88;45.99
67038;BME280;53940;53.204;6.590;2024-01-16T09:18:27;100516.38;;;21.87;46.06
67038;BME280;53940;53.204;6.590;2024-01-16T09:21:27;100508.47;;;21.85;46.10
67038;BME280;53940;53.204;6.590;2024-01-16T09:24:28;100511.16;;;21.85;45.90
67038;BME280;53940;53.204;6.590;2024-01-16T09:27:29;100512.31;;;21.83;46.09
67038;BME280;53940;53.204;6.590;2024-01-16T09:30:29;100516.81;;;21.82;46.01
67038;BME280;53940;53.204;6.590;2024-01-16T09:33:30;100523.19;;;21.81;46.05
67038;BME280;53940;53.204;6.590;2024-01-16T09:36:30;100516.00;;;21.81;46.08
67038;BME280;53940;53.204;6.590;2024-01-16T09:39:30;100523.91;;;21.83;46.21
67038;BME280;53940;53.204;6.590;2024-01-16T09:42:31;100516.00;;;21.81;46.25
67038;BME280;53940;53.204;6.590;2024-01-16T09:45:32;100520.38;;;21.83;46.27
67038;BME280;53940;53.204;6.590;2024-01-16T09:48:34;100511.47;;;21.82;46.31
67038;BME280;53940;53.204;6.590;2024-01-16T09:51:34;100507.81;;;21.83;46.39
67038;BME280;53940;53.204;6.590;2024-01-16T09:54:35;100512.31;;;21.83;46.52
67038;BME280;53940;53.204;6.590;2024-01-16T09:57:39;100526.41;;;21.85;46.53
67038;BME280;53940;53.204;6.590;2024-01-16T10:00:43;100524.44;;;21.87;46.84
67038;BME280;53940;53.204;6.590;2024-01-16T10:03:46;100530.63;;;21.87;46.97
67038;BME280;53940;53.204;6.590;2024-01-16T10:06:47;100534.00;;;21.89;46.90
67038;BME280;53940;53.204;6.590;2024-01-16T10:09:48;100522.44;;;21.89;46.54
67038;BME280;53940;53.204;6.590;2024-01-16T10:12:49;100517.22;;;21.87;46.78
67038;BME280;53940;53.204;6.590;2024-01-16T10:15:50;100521.91;;;21.85;46.58
67038;BME280;53940;53.204;6.590;2024-01-16T10:19:03;100523.91;;;21.83;46.92
67038;BME280;53940;53.204;6.590;2024-01-16T10:22:04;100517.00;;;21.80;46.83
67038;BME280;53940;53.204;6.590;2024-01-16T10:25:12;100517.97;;;21.79;47.00
67038;BME280;53940;53.204;6.590;2024-01-16T10:28:19;100509.94;;;21.79;46.60
67038;BME280;53940;53.204;6.590;2024-01-16T10:31:26;100507.44;;;21.78;46.81
67038;BME280;53940;53.204;6.590;2024-01-16T10:34:29;100503.06;;;21.77;46.54
67038;BME280;53940;53.204;6.590;2024-01-16T10:37:49;100505.75;;;21.77;46.59
67038;BME280;53940;53.204;6.590;2024-01-16T10:41:04;100508.56;;;21.75;46.94
67038;BME280;53940;53.204;6.590;2024-01-16T10:44:05;100506.72;;;21.76;46.82
67038;BME280;53940;53.204;6.590;2024-01-16T10:47:10;100509.41;;;21.76;46.64
67038;BME280;53940;53.204;6.590;2024-01-16T10:50:12;100511.25;;;21.75;46.52
67038;BME280;53940;53.204;6.590;2024-01-16T10:53:13;100503.38;;;21.74;46.54
67038;BME280;53940;53.204;6.590;2024-01-16T10:56:17;100506.03;;;21.74;46.75
67038;BME280;53940;53.204;6.590;2024-01-16T10:59:30;100493.50;;;21.74;46.81
67038;BME280;53940;53.204;6.590;2024-01-16T11:03:06;100494.47;;;21.73;46.57
67038;BME280;53940;53.204;6.590;2024-01-16T11:06:08;100492.63;;;21.74;46.70
67038;BME280;53940;53.204;6.590;2024-01-16T11:09:12;100495.47;;;21.72;46.87
67038;BME280;53940;53.204;6.590;2024-01-16T11:12:15;100494.63;;;21.72;46.92
67038;BME280;53940;53.204;6.590;2024-01-16T11:15:17;100491.09;;;21.71;46.64
67038;BME280;53940;53.204;6.590;2024-01-16T11:18:17;100491.97;;;21.72;46.90
67038;BME280;53940;53.204;6.590;2024-01-16T11:21:19;100487.59;;;21.71;46.63
67038;BME280;53940;53.204;6.590;2024-01-16T11:24:20;100474.31;;;21.69;46.94
67038;BME280;53940;53.204;6.590;2024-01-16T11:27:22;100480.53;;;21.70;46.89
67038;BME280;53940;53.204;6.590;2024-01-16T11:30:30;100478.81;;;21.68;46.83
67038;BME280;53940;53.204;6.590;2024-01-16T11:36:52;100468.09;;;21.68;46.45
67038;BME280;53940;53.204;6.590;2024-01-16T11:47:02;100466.72;;;21.64;46.91
67038;BME280;53940;53.204;6.590;2024-01-16T11:50:09;100465.03;;;21.63;47.23
67038;BME280;53940;53.204;6.590;2024-01-16T11:53:11;100456.69;;;21.66;46.97
67038;BME280;53940;53.204;6.590;2024-01-16T12:00:01;100467.25;;;21.68;46.90
67038;BME280;53940;53.204;6.590;2024-01-16T12:03:08;100460.03;;;21.68;47.05
67038;BME280;53940;53.204;6.590;2024-01-16T12:06:09;100463.56;;;21.69;47.20
67038;BME280;53940;53.204;6.590;2024-01-16T12:09:17;100455.41;;;21.71;47.32
67038;BME280;53940;53.204;6.590;2024-01-16T12:12:20;100452.41;;;21.74;47.57
67038;BME280;53940;53.204;6.590;2024-01-16T12:15:21;100453.06;;;21.76;47.34
67038;BME280;53940;53.204;6.590;2024-01-16T12:18:22;100450.41;;;21.76;47.76
67038;BME280;53940;53.204;6.590;2024-01-16T12:21:22;100450.09;;;21.79;47.65
67038;BME280;53940;53.204;6.590;2024-01-16T12:24:22;100459.81;;;21.80;47.70
67038;BME280;53940;53.204;6.590;2024-01-16T12:27:23;100449.09;;;21.80;48.07
67038;BME280;53940;53.204;6.590;2024-01-16T12:30:27;100438.38;;;21.80;48.02
67038;BME280;53940;53.204;6.590;2024-01-16T12:33:28;100445.41;;;21.81;48.11
67038;BME280;53940;53.204;6.590;2024-01-16T12:36:29;100434.69;;;21.81;47.94
67038;BME280;53940;53.204;6.590;2024-01-16T12:39:29;100438.38;;;21.80;48.01
67038;BME280;53940;53.204;6.590;2024-01-16T12:42:29;100432.31;;;21.78;48.20
67038;BME280;53940;53.204;6.590;2024-01-16T12:45:30;100429.66;;;21.78;47.94
67038;BME280;53940;53.204;6.590;2024-01-16T12:48:31;100425.28;;;21.77;47.84
67038;BME280;53940;53.204;6.590;2024-01-16T12:51:32;100424.56;;;21.75;47.61
67038;BME280;53940;53.204;6.590;2024-01-16T12:54:32;100416.88;;;21.72;47.38
67038;BME280;53940;53.204;6.590;2024-01-16T12:57:33;100412.50;;;21.71;47.68
67038;BME280;53940;53.204;6.590;2024-01-16T13:00:34;100411.75;;;21.68;47.59
67038;BME280;53940;53.204;6.590;2024-01-16T13:03:34;100404.72;;;21.67;47.38
67038;BME280;53940;53.204;6.590;2024-01-16T13:06:35;100407.41;;;21.67;47.61
67038;BME280;53940;53.204;6.590;2024-01-16T13:09:36;100394.16;;;21.66;47.50
67038;BME280;53940;53.204;6.590;2024-01-16T13:12:37;100383.41;;;21.66;47.60
67038;BME280;53940;53.204;6.590;2024-01-16T13:15:38;100383.41;;;21.66;47.39
67038;BME280;53940;53.204;6.590;2024-01-16T13:18:39;100383.41;;;21.66;47.32
67038;BME280;53940;53.204;6.590;2024-01-16T13:21:39;100371.88;;;21.65;47.53
67038;BME280;53940;53.204;6.590;2024-01-16T13:24:39;100374.56;;;21.65;47.61
67038;BME280;53940;53.204;6.590;2024-01-16T13:27:40;100371.88;;;21.65;47.34
67038;BME280;53940;53.204;6.590;2024-01-16T13:30:41;100371.88;;;21.65;47.42
67038;BME280;53940;53.204;6.590;2024-01-16T13:33:42;100369.19;;;21.65;47.35
67038;BME280;53940;53.204;6.590;2024-01-16T13:36:43;100369.19;;;21.65;47.21
67038;BME280;53940;53.204;6.590;2024-01-16T13:39:43;100368.19;;;21.66;47.27
67038;BME280;53940;53.204;6.590;2024-01-16T13:42:44;100355.78;;;21.65;47.21
67038;BME280;53940;53.204;6.590;2024-01-16T13:45:45;100359.13;;;21.67;47.13
67038;BME280;53940;53.204;6.590;2024-01-16T13:48:49;100361.66;;;21.69;47.13
67038;BME280;53940;53.204;6.590;2024-01-16T13:51:50;100358.97;;;21.69;47.18
67038;BME280;53940;53.204;6.590;2024-01-16T13:54:51;100355.44;;;21.68;46.97
67038;BME280;53940;53.204;6.590;2024-01-16T13:57:51;100351.78;;;21.70;47.03
67038;BME280;53940;53.204;6.590;2024-01-16T14:00:52;100350.63;;;21.72;47.01
67038;BME280;53940;53.204;6.590;2024-01-16T14:03:53;100351.50;;;21.73;47.01
67038;BME280;53940;53.204;6.590;2024-01-16T14:06:54;100346.94;;;21.73;47.22
67038;BME280;53940;53.204;6.590;2024-01-16T14:09:55;100352.16;;;21.75;47.23
67038;BME280;53940;53.204;6.590;2024-01-16T14:12:55;100345.78;;;21.76;47.14
67038;BME280;53940;53.204;6.590;2024-01-16T14:15:56;100340.44;;;21.76;47.01
67038;BME280;53940;53.204;6.590;2024-01-16T14:18:57;100342.13;;;21.77;46.89
67038;BME280;53940;53.204;6.590;2024-01-16T14:22:01;100343.81;;;21.78;46.77
67038;BME280;53940;53.204;6.590;2024-01-16T14:25:01;100340.13;;;21.79;47.06
67038;BME280;53940;53.204;6.590;2024-01-16T14:28:03;100340.13;;;21.79;46.74
67038;BME280;53940;53.204;6.590;2024-01-16T14:31:04;100341.81;;;21.80;46.80
67038;BME280;53940;53.204;6.590;2024-01-16T14:34:04;100338.13;;;21.81;46.74
67038;BME280;53940;53.204;6.590;2024-01-16T14:37:05;100329.06;;;21.82;46.86
67038;BME280;53940;53.204;6.590;2024-01-16T14:40:06;100322.88;;;21.81;46.90
67038;BME280;53940;53.204;6.590;2024-01-16T14:43:12;100322.72;;;21.83;46.89
67038;BME280;53940;53.204;6.590;2024-01-16T14:46:13;100326.22;;;21.84;46.77
67038;BME280;53940;53.204;6.590;2024-01-16T14:49:13;100321.72;;;21.84;46.98
67038;BME280;53940;53.204;6.590;2024-01-16T14:52:14;100327.09;;;21.84;46.77
67038;BME280;53940;53.204;6.590;2024-01-16T14:55:16;100327.09;;;21.84;46.94
67038;BME280;53940;53.204;6.590;2024-01-16T14:58:17;100327.09;;;21.84;46.74
67038;BME280;53940;53.204;6.590;2024-01-16T15:01:22;100329.78;;;21.84;46.83
67038;BME280;53940;53.204;6.590;2024-01-16T15:04:23;100332.44;;;21.84;46.64
67038;BME280;53940;53.204;6.590;2024-01-16T15:07:23;100322.53;;;21.85;46.54
67038;BME280;53940;53.204;6.590;2024-01-16T15:10:25;100316.34;;;21.84;46.61
67038;BME280;53940;53.204;6.590;2024-01-16T15:13:26;100313.69;;;21.84;46.70
67038;BME280;53940;53.204;6.590;2024-01-16T15:16:27;100309.31;;;21.83;46.46
67038;BME280;53940;53.204;6.590;2024-01-16T15:19:28;100312.00;;;21.83;46.86
67038;BME280;53940;53.204;6.590;2024-01-16T15:22:29;100309.31;;;21.83;46.71
67038;BME280;53940;53.204;6.590;2024-01-16T15:25:29;100311.00;;;21.84;46.77
67038;BME280;53940;53.204;6.590;2024-01-16T15:28:33;100305.78;;;21.83;46.48
67038;BME280;53940;53.204;6.590;2024-01-16T15:31:33;100303.94;;;21.83;46.73
67038;BME280;53940;53.204;6.590;2024-01-16T15:34:36;100302.25;;;21.82;46.59
67038;BME280;53940;53.204;6.590;2024-01-16T15:37:36;100289.84;;;21.81;46.79
67038;BME280;53940;53.204;6.590;2024-01-16T15:40:37;100293.53;;;21.80;46.50
67038;BME280;53940;53.204;6.590;2024-01-16T15:43:37;100305.94;;;21.81;46.60
67038;BME280;53940;53.204;6.590;2024-01-16T15:47:13;100309.31;;;21.83;46.28
67038;BME280;53940;53.204;6.590;2024-01-16T15:50:13;100303.09;;;21.83;46.45
67038;BME280;53940;53.204;6.590;2024-01-16T15:53:14;100303.09;;;21.83;46.40
67038;BME280;53940;53.204;6.590;2024-01-16T15:56:15;100303.09;;;21.83;46.26
67038;BME280;53940;53.204;6.590;2024-01-16T15:59:16;100307.59;;;21.82;46.38
67038;BME280;53940;53.204;6.590;2024-01-16T16:02:16;100312.97;;;21.82;46.23